• Join FlightAware (Why Join?)
  • Login
  • US Flag 
10:37AM EST


 

Airport Tracker/Info


-or-


 

Live Flight TrackerFlight Track Log ✈ SWA1044 ✈ 07-Sep-2013 ✈ KSMF - KSNA

Flight Track Log - Related Links

Times and Time Zones

All times are in EDT time to prevent confusion due to time zone crossing. See the SWA1044 flight status page for this flight to view local times or setup timezone preferences in your user account.

Time Position Orientation Groundspeed Altitude Reporting Facility
EDT Latitude Longitude Course Direction KTS MPH feet Rate Location/Type
11:33AM 38.6833 -121.6000 142° Southeast 149 171 1,000  Level Northern Cal TRACON
11:34AM 38.6333 -121.5500 142° Southeast 213 245 3,500 2,700 Climbing Northern Cal TRACON
11:35AM 38.6000 -121.4833 123° Southeast 261 300 6,500 3,060 Climbing Northern Cal TRACON
11:37AM 38.5114 -121.2800 119° Southeast 336 387 13,600 3,180 Climbing Oakland Center
11:38AM 38.4603 -121.1692 120° Southeast 359 413 17,100 3,480 Climbing Oakland Center
11:39AM 38.3967 -121.0336 121° Southeast 387 445 20,700 2,820 Climbing Oakland Center
11:40AM 38.3375 -120.9092 121° Southeast 410 472 23,000 2,040 Climbing Oakland Center
11:41AM 38.2764 -120.7808 121° Southeast 423 487 24,900 1,140 Climbing Oakland Center
11:42AM 38.2075 -120.6586 126° Southeast 425 489 25,400 1,140 Climbing Oakland Center
11:43AM 38.1106 -120.5653 143° Southeast 434 499 27,300 1,740 Climbing Oakland Center
11:44AM 38.0128 -120.4708 143° Southeast 440 506 29,000 780 Climbing Oakland Center
11:45AM 37.9144 -120.3756 143° Southeast 444 511 29,000  Level Oakland Center
11:46AM 37.8186 -120.2797 142° Southeast 438 504 29,000  Level Oakland Center
11:47AM 37.6997 -120.1664 143° Southeast 443 510 29,000  Level Oakland Center
11:48AM 37.6019 -120.0714 142° Southeast 444 511 29,000 1,020 Level Oakland Center
11:49AM 37.5031 -119.9767 143° Southeast 447 514 31,100 2,100 Climbing Oakland Center
11:50AM 37.4036 -119.8792 142° Southeast 452 520 33,400 2,040 Climbing Oakland Center
11:51AM 37.3111 -119.7994 146° Southeast 447 514 35,300 2,040 Climbing Oakland Center
11:52AM 37.1672 -119.7753 172° South 434 499 37,600 1,740 Climbing Oakland Center
11:53AM 37.0497 -119.7569 173° South 427 491 38,900 660 Climbing Oakland Center
11:54AM 36.9286 -119.7419 174° South 435 501 39,000  Climbing Oakland Center
11:55AM 36.8083 -119.7239 173° South 436 502 39,000  Level Oakland Center
11:56AM 36.6867 -119.7081 174° South 438 504 39,000  Level Oakland Center
11:57AM 36.5658 -119.6933 174° South 437 503 39,000  Level Oakland Center
11:58AM 36.4444 -119.6778 174° South 437 503 39,000  Level Oakland Center
11:59AM 36.3233 -119.6597 173° South 437 503 39,000  Level Oakland Center
12:00PM 36.2019 -119.6436 174° South 438 504 39,000  Level Oakland Center
12:01PM 36.0553 -119.6253 174° South 439 505 39,000  Level Oakland Center
12:02PM 35.9314 -119.6147 176° South 443 510 39,000  Level Oakland Center
12:03PM 35.8094 -119.6203 182° South 439 505 39,000  Level Oakland Center
12:04PM 35.6867 -119.6256 182° South 440 506 39,000  Level Los Angeles Center
12:05PM 35.5633 -119.6306 182° South 441 507 39,000  Level Los Angeles Center
12:07PM 35.4417 -119.6347 182° South 438 504 39,000  Level Los Angeles Center
12:08PM 35.3186 -119.6400 182° South 440 506 39,000  Level Los Angeles Center
12:09PM 35.1839 -119.5808 160° South 442 509 39,000  Level Los Angeles Center
12:10PM 35.0842 -119.4936 144° Southeast 441 507 39,000  Level Los Angeles Center
12:11PM 34.9842 -119.4078 145° Southeast 439 505 39,000 -300 Level Los Angeles Center
12:12PM 34.8833 -119.3250 146° Southeast 437 503 38,500 -1,440 Descending Los Angeles Center
12:13PM 34.7861 -119.2408 145° Southeast 433 498 36,100 -2,640 Descending Los Angeles Center
12:14PM 34.6881 -119.1589 145° Southeast 430 495 33,100 -3,060 Descending Los Angeles Center
12:15PM 34.5672 -119.0592 146° Southeast 436 502 29,800 -2,760 Descending Los Angeles Center
12:16PM 34.4703 -118.9786 146° Southeast 428 493 27,400 -2,100 Descending Los Angeles Center
12:17PM 34.3950 -118.9158 145° Southeast 418 481 25,500 -2,280 Descending Los Angeles Center
12:18PM 34.2753 -118.8525 156° South 396 456 22,700 -2,460 Descending Los Angeles Center
12:19PM 34.1731 -118.8139 163° South 386 444 20,500 -2,400 Descending Los Angeles Center
12:20PM 34.0589 -118.7722 163° South 372 428 17,800 -2,520 Descending Los Angeles Center
12:21PM 33.9581 -118.7353 163° South 355 409 15,300 -1,860 Descending Los Angeles Center
12:22PM 33.8669 -118.7025 163° South 345 397 14,000 -660 Descending Los Angeles Center
12:23PM 33.7783 -118.6703 163° South 347 399 14,000 -240 Level Los Angeles Center
12:24PM 33.6864 -118.6369 163° South 349 402 13,600 -1,140 Descending Los Angeles Center
12:25PM 33.5817 -118.5856 158° South 343 395 11,700 -1,800 Descending Los Angeles Center
12:26PM 33.5300 -118.4881 122° Southeast 352 405 9,900 -1,560 Descending Los Angeles Center
12:27PM 33.5261 -118.3933 93° East 316 364 8,200 -1,560 Descending Los Angeles Center
12:28PM 33.5550 -118.2847 72° East 297 342 6,400 -1,560 Descending Los Angeles Center
12:30PM 33.5819 -118.1822 72° East 282 325 5,000 -660 Descending Los Angeles Center
12:31PM 33.6008 -118.1094 73° East 254 292 5,100  Climbing Los Angeles Center
12:32PM 33.6194 -118.0397 72° East 228 262 5,100 -60 Level Los Angeles Center
12:33PM 33.6667 -117.9833 45° Northeast 223 257 5,000 -720 Descending Southern California TRACON
12:34PM 33.7167 -117.9500 29° Northeast 219 252 3,800 -1,080 Descending Southern California TRACON
12:34PM 33.7667 -117.9167 29° Northeast 205 236 3,000 -780 Descending Southern California TRACON
12:36PM 33.7833 -117.8667 68° East 164 189 2,300 -660 Descending Southern California TRACON
12:37PM 33.7500 -117.8333 140° Southeast 140 161 1,700 -720 Descending Southern California TRACON
12:38PM 33.7167 -117.8500 203° Southwest 128 147 900 -780 Descending Southern California TRACON
12:39PM 33.6833 -117.8667 203° Southwest 126 145 200 -720 Descending Southern California TRACON
12:41PM 33.6757 -117.8682 180° South  Level Estimated